createdAt,value
2018-02-01T00:00:14.308Z,4.64
2018-02-01T00:01:14.301Z,4.57
2018-02-01T00:02:14.294Z,4.69
2018-02-01T00:03:14.291Z,4.52
2018-02-01T00:04:14.281Z,4.51
2018-02-01T00:05:14.311Z,4.47
2018-02-01T00:06:14.274Z,4.42
2018-02-01T00:07:14.265Z,4.50
2018-02-01T00:08:14.287Z,4.52
2018-02-01T00:09:14.255Z,4.50
2018-02-01T00:10:14.252Z,4.51
2018-02-01T00:11:14.269Z,4.52
2018-02-01T00:12:14.235Z,4.50
2018-02-01T00:13:14.270Z,4.55
2018-02-01T00:14:14.232Z,4.54
2018-02-01T00:15:14.221Z,4.42
2018-02-01T00:16:14.211Z,4.47
2018-02-01T00:17:14.213Z,4.40
2018-02-01T00:18:14.218Z,4.37
2018-02-01T00:19:14.203Z,4.37
2018-02-01T00:20:14.212Z,4.33
2018-02-01T00:21:14.263Z,4.29
2018-02-01T00:22:14.183Z,4.34
2018-02-01T00:23:14.179Z,4.34
2018-02-01T00:24:14.196Z,4.28
2018-02-01T00:25:14.193Z,4.32
2018-02-01T00:26:14.155Z,4.22
2018-02-01T00:27:14.172Z,4.21
2018-02-01T00:28:14.164Z,4.21
2018-02-01T00:29:14.146Z,4.12
2018-02-01T00:30:14.156Z,4.19
2018-02-01T00:31:14.166Z,4.16
2018-02-01T00:32:14.123Z,4.18
2018-02-01T00:33:14.112Z,4.12
2018-02-01T00:34:14.121Z,4.16
2018-02-01T00:35:14.114Z,4.21
2018-02-01T00:36:14.100Z,4.22
2018-02-01T00:37:14.089Z,4.21
2018-02-01T00:38:14.160Z,4.07
2018-02-01T00:39:14.093Z,4.15
2018-02-01T00:40:14.072Z,4.04
2018-02-01T00:41:14.091Z,4.14
2018-02-01T00:42:14.077Z,4.15
2018-02-01T00:43:14.081Z,4.08
2018-02-01T00:44:14.090Z,4.12
2018-02-01T00:45:14.041Z,4.15
2018-02-01T00:46:14.039Z,4.10
2018-02-01T00:47:14.054Z,4.10
2018-02-01T00:48:14.054Z,4.15
2018-02-01T00:49:14.027Z,4.10
2018-02-01T00:50:14.018Z,4.07
2018-02-01T00:51:14.029Z,4.10
2018-02-01T00:52:14.010Z,4.10
2018-02-01T00:53:13.997Z,4.21
2018-02-01T00:54:13.991Z,4.21
2018-02-01T00:55:13.985Z,4.18
2018-02-01T00:56:13.981Z,4.19
2018-02-01T00:57:13.989Z,4.18
2018-02-01T00:58:15.599Z,4.24
2018-02-01T00:59:14.040Z,4.18
2018-02-01T01:00:14.090Z,4.21
2018-02-01T01:01:14.033Z,4.25
2018-02-01T01:02:13.953Z,4.22
2018-02-01T01:03:13.969Z,4.19
2018-02-01T01:04:13.936Z,4.21
2018-02-01T01:05:13.942Z,4.21
2018-02-01T01:06:13.965Z,4.19
2018-02-01T01:07:13.925Z,4.15
2018-02-01T01:08:13.913Z,4.15
2018-02-01T01:09:13.914Z,4.18
2018-02-01T01:10:13.907Z,4.21
2018-02-01T01:11:13.889Z,4.18
2018-02-01T01:12:13.921Z,4.16
2018-02-01T01:13:13.913Z,4.16
2018-02-01T01:14:13.873Z,4.15
2018-02-01T01:15:13.880Z,4.21
2018-02-01T01:16:13.886Z,4.14
2018-02-01T01:17:13.900Z,4.16
2018-02-01T01:18:13.854Z,4.04
2018-02-01T01:19:13.842Z,4.15
2018-02-01T01:20:13.898Z,4.14
2018-02-01T01:21:13.866Z,4.16
2018-02-01T01:22:13.827Z,4.10
2018-02-01T01:23:13.850Z,4.00
2018-02-01T01:24:13.818Z,4.06
2018-02-01T01:25:13.811Z,4.07
2018-02-01T01:26:13.829Z,4.18
2018-02-01T01:27:13.798Z,4.06
2018-02-01T01:28:13.792Z,4.04
2018-02-01T01:29:13.786Z,4.12
2018-02-01T01:30:13.787Z,4.07
2018-02-01T01:31:13.776Z,4.12
2018-02-01T01:32:13.795Z,4.01
2018-02-01T01:33:13.756Z,4.12
2018-02-01T01:34:13.801Z,4.08
2018-02-01T01:35:13.751Z,4.08
2018-02-01T01:36:13.751Z,4.12
2018-02-01T01:37:13.736Z,4.06
2018-02-01T01:38:13.731Z,4.12
2018-02-01T01:39:13.723Z,4.14
2018-02-01T01:40:13.744Z,4.08
2018-02-01T01:41:13.713Z,4.04
2018-02-01T01:42:13.708Z,4.10
2018-02-01T01:43:13.732Z,3.97
2018-02-01T01:44:13.732Z,3.96
2018-02-01T01:45:13.709Z,3.98
2018-02-01T01:46:13.678Z,3.94
2018-02-01T01:47:13.692Z,3.97
2018-02-01T01:48:13.698Z,3.83
2018-02-01T01:49:13.662Z,3.82
2018-02-01T01:50:13.664Z,3.82
2018-02-01T01:51:13.649Z,3.75
2018-02-01T01:52:13.661Z,3.72
2018-02-01T01:53:13.672Z,3.72
2018-02-01T01:54:13.644Z,3.65
2018-02-01T01:55:13.641Z,3.61
2018-02-01T01:56:13.679Z,3.62
2018-02-01T01:57:13.684Z,3.58
2018-02-01T01:58:13.636Z,3.54
2018-02-01T01:59:13.653Z,3.54
2018-02-01T02:00:13.641Z,3.57
2018-02-01T02:01:13.660Z,3.57
2018-02-01T02:02:13.632Z,3.58
2018-02-01T02:03:13.630Z,3.54
2018-02-01T02:04:13.635Z,3.57
2018-02-01T02:05:13.609Z,3.58
2018-02-01T02:06:13.559Z,3.54
2018-02-01T02:07:13.557Z,3.46
2018-02-01T02:08:13.550Z,3.42
2018-02-01T02:09:13.545Z,3.44
2018-02-01T02:10:13.542Z,3.49
2018-02-01T02:11:13.564Z,3.42
2018-02-01T02:12:13.529Z,3.30
2018-02-01T02:13:13.530Z,3.31
2018-02-01T02:14:13.515Z,3.43
2018-02-01T02:15:13.515Z,3.31
2018-02-01T02:16:13.504Z,3.36
2018-02-01T02:17:13.499Z,3.33
2018-02-01T02:18:13.487Z,3.43
2018-02-01T02:19:13.486Z,3.39
2018-02-01T02:20:13.492Z,3.44
2018-02-01T02:21:13.495Z,3.47
2018-02-01T02:22:13.468Z,3.42
2018-02-01T02:23:13.458Z,3.39
2018-02-01T02:24:13.482Z,3.30
2018-02-01T02:25:13.450Z,3.18
2018-02-01T02:26:13.441Z,3.07
2018-02-01T02:27:13.463Z,3.03
2018-02-01T02:28:13.451Z,2.94
2018-02-01T02:29:13.426Z,2.89
2018-02-01T02:30:13.416Z,2.81
2018-02-01T02:31:13.429Z,2.79
2018-02-01T02:32:13.404Z,2.77
2018-02-01T02:33:13.393Z,2.77
2018-02-01T02:34:13.388Z,2.69
2018-02-01T02:35:13.386Z,2.69
2018-02-01T02:36:13.374Z,2.67
2018-02-01T02:37:13.372Z,2.71
2018-02-01T02:38:13.365Z,2.69
2018-02-01T02:39:13.359Z,2.69
2018-02-01T02:40:13.350Z,2.71
2018-02-01T02:41:13.348Z,2.67
2018-02-01T02:42:13.339Z,2.70
2018-02-01T02:43:13.334Z,2.73
2018-02-01T02:44:13.324Z,2.63
2018-02-01T02:45:13.315Z,2.76
2018-02-01T02:46:13.331Z,2.56
2018-02-01T02:47:13.347Z,2.64
2018-02-01T02:48:13.300Z,2.63
2018-02-01T02:49:13.308Z,2.63
2018-02-01T02:50:13.286Z,2.58
2018-02-01T02:51:13.281Z,2.59
2018-02-01T02:52:13.269Z,2.52
2018-02-01T02:53:13.265Z,2.51
2018-02-01T02:54:13.266Z,2.52
2018-02-01T02:55:13.255Z,2.46
2018-02-01T02:56:13.259Z,2.49
2018-02-01T02:57:13.298Z,2.48
2018-02-01T02:58:13.240Z,2.58
2018-02-01T02:59:13.251Z,2.48
2018-02-01T03:00:13.269Z,2.56
2018-02-01T03:01:13.274Z,2.56
2018-02-01T03:02:13.203Z,2.59
2018-02-01T03:03:13.253Z,2.56
2018-02-01T03:04:13.247Z,2.63
2018-02-01T03:05:13.189Z,2.61
2018-02-01T03:06:13.211Z,2.55
2018-02-01T03:07:13.181Z,2.61
2018-02-01T03:08:13.214Z,2.58
2018-02-01T03:09:13.162Z,2.70
2018-02-01T03:10:13.150Z,2.73
2018-02-01T03:11:13.145Z,2.67
2018-02-01T03:12:13.159Z,2.71
2018-02-01T03:13:13.135Z,2.67
2018-02-01T03:14:13.124Z,2.70
2018-02-01T03:15:13.147Z,2.63
2018-02-01T03:16:13.110Z,2.71
2018-02-01T03:17:13.103Z,2.61
2018-02-01T03:18:13.099Z,2.58
2018-02-01T03:19:13.089Z,2.55
2018-02-01T03:20:13.082Z,2.58
2018-02-01T03:21:13.100Z,2.59
2018-02-01T03:22:13.074Z,2.61
2018-02-01T03:23:13.094Z,2.59
2018-02-01T03:24:13.053Z,2.69
2018-02-01T03:25:13.063Z,2.56
2018-02-01T03:26:13.054Z,2.58
2018-02-01T03:27:13.080Z,2.61
2018-02-01T03:28:13.103Z,2.56
2018-02-01T03:29:13.064Z,2.58
2018-02-01T03:30:13.016Z,2.56
2018-02-01T03:31:13.012Z,2.56
2018-02-01T03:32:12.999Z,2.58
2018-02-01T03:33:13.055Z,2.56
2018-02-01T03:34:13.007Z,2.56
2018-02-01T03:35:12.980Z,2.56
2018-02-01T03:36:12.975Z,2.48
2018-02-01T03:37:12.971Z,2.53
2018-02-01T03:38:12.955Z,2.48
2018-02-01T03:39:12.957Z,2.51
2018-02-01T03:40:12.944Z,2.48
2018-02-01T03:41:12.936Z,2.48
2018-02-01T03:42:12.948Z,2.41
2018-02-01T03:43:12.919Z,2.44
2018-02-01T03:44:12.971Z,2.49
2018-02-01T03:45:12.947Z,2.48
2018-02-01T03:46:12.953Z,2.56
2018-02-01T03:47:12.897Z,2.52
2018-02-01T03:48:12.914Z,2.53
2018-02-01T03:49:12.931Z,2.56
2018-02-01T03:50:12.933Z,2.53
2018-02-01T03:51:12.897Z,2.45
2018-02-01T03:52:12.853Z,2.45
2018-02-01T03:53:12.858Z,2.44
2018-02-01T03:54:12.844Z,2.48
2018-02-01T03:55:12.843Z,2.44
2018-02-01T03:56:12.932Z,2.40
2018-02-01T03:57:12.846Z,2.49
2018-02-01T03:58:13.573Z,2.46
2018-02-01T03:59:12.836Z,2.45
2018-02-01T04:00:12.844Z,2.45
2018-02-01T04:01:12.799Z,2.44
2018-02-01T04:02:12.810Z,2.31
2018-02-01T04:03:12.786Z,2.37
2018-02-01T04:04:12.779Z,2.33
2018-02-01T04:05:12.764Z,2.30
2018-02-01T04:06:12.782Z,2.31
2018-02-01T04:07:12.749Z,2.27
2018-02-01T04:08:12.767Z,2.22
2018-02-01T04:09:12.820Z,2.31
2018-02-01T04:10:12.762Z,2.34
2018-02-01T04:11:12.888Z,2.23
2018-02-01T04:12:12.823Z,2.22
2018-02-01T04:13:12.753Z,2.34
2018-02-01T04:14:12.759Z,2.22
2018-02-01T04:15:12.734Z,2.23
2018-02-01T04:16:12.735Z,2.23
2018-02-01T04:17:12.702Z,2.26
2018-02-01T04:18:12.844Z,2.26
2018-02-01T04:19:12.702Z,2.23
2018-02-01T04:20:12.658Z,2.19
2018-02-01T04:21:12.670Z,2.20
2018-02-01T04:22:12.649Z,2.28
2018-02-01T04:23:12.672Z,2.13
2018-02-01T04:24:12.630Z,2.28
2018-02-01T04:25:12.627Z,2.19
2018-02-01T04:26:12.690Z,2.16
2018-02-01T04:27:12.633Z,2.15
2018-02-01T04:28:12.601Z,2.17
2018-02-01T04:29:12.598Z,2.13
2018-02-01T04:30:12.627Z,2.13
2018-02-01T04:31:12.589Z,2.16
2018-02-01T04:32:12.616Z,2.10
2018-02-01T04:33:12.576Z,2.10
2018-02-01T04:34:12.568Z,2.16
2018-02-01T04:35:12.558Z,2.13
2018-02-01T04:36:12.579Z,2.15
2018-02-01T04:37:12.553Z,2.06
2018-02-01T04:38:12.592Z,2.09
2018-02-01T04:39:12.547Z,2.02
2018-02-01T04:40:12.543Z,1.93
2018-02-01T04:41:12.511Z,1.99
2018-02-01T04:42:12.508Z,2.09
2018-02-01T04:43:12.641Z,2.08
2018-02-01T04:44:12.519Z,2.02
2018-02-01T04:45:12.520Z,2.02
2018-02-01T04:46:12.503Z,1.98
2018-02-01T04:47:12.467Z,1.99
2018-02-01T04:48:12.453Z,1.98
2018-02-01T04:49:12.477Z,1.98
2018-02-01T04:50:12.440Z,1.99
2018-02-01T04:51:12.439Z,2.08
2018-02-01T04:52:12.476Z,2.04
2018-02-01T04:53:12.424Z,2.01
2018-02-01T04:54:12.410Z,2.09
2018-02-01T04:55:12.519Z,1.99
2018-02-01T04:56:12.399Z,2.04
2018-02-01T04:57:12.399Z,2.06
2018-02-01T04:58:12.403Z,2.09
2018-02-01T04:59:12.399Z,2.06
2018-02-01T05:00:12.384Z,2.08
2018-02-01T05:01:12.363Z,1.98
2018-02-01T05:02:12.354Z,2.02
2018-02-01T05:03:12.347Z,1.99
2018-02-01T05:04:12.337Z,2.08
2018-02-01T05:05:12.332Z,1.93
2018-02-01T05:06:12.333Z,1.94
2018-02-01T05:07:12.344Z,1.87
2018-02-01T05:08:12.316Z,1.91
2018-02-01T05:09:12.316Z,1.79
2018-02-01T05:10:12.296Z,1.85
2018-02-01T05:11:12.295Z,1.89
2018-02-01T05:12:12.314Z,1.80
2018-02-01T05:13:12.310Z,1.79
2018-02-01T05:14:12.266Z,1.89
2018-02-01T05:15:12.256Z,1.76
2018-02-01T05:16:12.277Z,1.79
2018-02-01T05:17:12.242Z,1.85
2018-02-01T05:18:12.243Z,1.85
2018-02-01T05:19:12.235Z,1.79
2018-02-01T05:20:12.232Z,1.85
2018-02-01T05:21:12.220Z,1.80
2018-02-01T05:22:12.207Z,1.85
2018-02-01T05:23:12.203Z,1.87
2018-02-01T05:24:12.223Z,1.85
2018-02-01T05:25:12.213Z,1.87
2018-02-01T05:26:12.209Z,1.89
2018-02-01T05:27:12.175Z,1.97
2018-02-01T05:28:12.192Z,2.01
2018-02-01T05:29:12.186Z,1.94
2018-02-01T05:30:12.200Z,1.94
2018-02-01T05:31:12.143Z,1.87
2018-02-01T05:32:12.139Z,1.91
2018-02-01T05:33:12.128Z,1.93
2018-02-01T05:34:12.123Z,1.87
2018-02-01T05:35:12.118Z,1.90
2018-02-01T05:36:12.104Z,1.83
2018-02-01T05:37:12.203Z,1.79
2018-02-01T05:38:12.089Z,1.79
2018-02-01T05:39:12.093Z,1.87
2018-02-01T05:40:12.078Z,1.89
2018-02-01T05:41:12.075Z,1.89
2018-02-01T05:42:12.060Z,1.91
2018-02-01T05:43:12.054Z,1.85
2018-02-01T05:44:12.082Z,1.87
2018-02-01T05:45:12.042Z,1.85
2018-02-01T05:46:12.029Z,1.89
2018-02-01T05:47:12.024Z,1.87
2018-02-01T05:48:12.014Z,1.83
2018-02-01T05:49:12.009Z,1.79
2018-02-01T05:50:12.012Z,1.78
2018-02-01T05:51:12.003Z,1.76
2018-02-01T05:52:11.988Z,1.79
2018-02-01T05:53:11.977Z,1.78
2018-02-01T05:54:11.968Z,1.90
2018-02-01T05:55:11.965Z,1.76
2018-02-01T05:56:11.966Z,1.89
2018-02-01T05:57:11.950Z,1.80
2018-02-01T05:58:11.964Z,1.78
2018-02-01T05:59:11.933Z,1.76
2018-02-01T06:00:11.924Z,1.73
2018-02-01T06:01:11.918Z,1.64
2018-02-01T06:02:11.914Z,1.72
2018-02-01T06:03:11.908Z,1.68
2018-02-01T06:04:11.893Z,1.62
2018-02-01T06:05:11.891Z,1.79
2018-02-01T06:06:11.902Z,1.75
2018-02-01T06:07:11.873Z,1.75
2018-02-01T06:08:11.880Z,1.73
2018-02-01T06:09:11.867Z,1.87
2018-02-01T06:10:11.853Z,1.83
2018-02-01T06:11:11.886Z,1.78
2018-02-01T06:12:11.837Z,1.93
2018-02-01T06:13:11.835Z,1.82
2018-02-01T06:14:11.822Z,1.82
2018-02-01T06:15:11.813Z,1.89
2018-02-01T06:16:11.824Z,1.78
2018-02-01T06:17:11.801Z,1.79
2018-02-01T06:18:11.796Z,1.76
2018-02-01T06:19:11.786Z,1.72
2018-02-01T06:20:11.777Z,1.75
2018-02-01T06:21:11.773Z,1.79
2018-02-01T06:22:11.762Z,1.75
2018-02-01T06:23:11.754Z,1.73
2018-02-01T06:24:11.772Z,1.69
2018-02-01T06:25:11.780Z,1.64
2018-02-01T06:26:11.736Z,1.72
2018-02-01T06:27:11.729Z,1.72
2018-02-01T06:28:11.724Z,1.71
2018-02-01T06:29:11.710Z,1.65
2018-02-01T06:30:11.709Z,1.68
2018-02-01T06:31:11.696Z,1.62
2018-02-01T06:32:11.688Z,1.61
2018-02-01T06:33:11.683Z,1.52
2018-02-01T06:34:11.675Z,1.57
2018-02-01T06:35:11.955Z,1.55
2018-02-01T06:36:11.661Z,1.68
2018-02-01T06:37:11.671Z,1.64
2018-02-01T06:38:11.680Z,1.54
2018-02-01T06:39:11.642Z,1.57
2018-02-01T06:40:11.635Z,1.58
2018-02-01T06:41:11.624Z,1.57
2018-02-01T06:42:11.616Z,1.52
2018-02-01T06:43:11.611Z,1.55
2018-02-01T06:44:11.602Z,1.57
2018-02-01T06:45:11.591Z,1.55
2018-02-01T06:46:11.587Z,1.50
2018-02-01T06:47:11.588Z,1.55
2018-02-01T06:48:11.574Z,1.64
2018-02-01T06:49:11.616Z,1.68
2018-02-01T06:50:11.559Z,1.71
2018-02-01T06:51:11.549Z,1.64
2018-02-01T06:52:11.569Z,1.65
2018-02-01T06:53:11.535Z,1.61
2018-02-01T06:54:11.532Z,1.64
2018-02-01T06:55:11.519Z,1.61
2018-02-01T06:56:11.521Z,1.54
2018-02-01T06:57:11.506Z,1.55
2018-02-01T06:58:11.552Z,1.55
2018-02-01T06:59:11.506Z,1.61
2018-02-01T07:00:11.483Z,1.62
2018-02-01T07:01:11.482Z,1.65
2018-02-01T07:02:11.500Z,1.62
2018-02-01T07:03:11.463Z,1.64
2018-02-01T07:04:11.465Z,1.65
2018-02-01T07:05:11.450Z,1.69
2018-02-01T07:06:11.443Z,1.68
2018-02-01T07:07:11.431Z,1.65
2018-02-01T07:08:11.423Z,1.69
2018-02-01T07:09:11.419Z,1.64
2018-02-01T07:10:11.410Z,1.72
2018-02-01T07:11:11.403Z,1.79
2018-02-01T07:12:11.398Z,1.78
2018-02-01T07:13:11.387Z,1.91
2018-02-01T07:14:11.379Z,1.87
2018-02-01T07:15:11.372Z,1.82
2018-02-01T07:16:11.369Z,1.80
2018-02-01T07:17:11.361Z,1.83
2018-02-01T07:18:11.353Z,1.80
2018-02-01T07:19:11.349Z,1.76
2018-02-01T07:20:11.340Z,1.83
2018-02-01T07:21:11.329Z,1.79
2018-02-01T07:22:11.322Z,1.89
2018-02-01T07:23:11.313Z,1.89
2018-02-01T07:24:11.331Z,1.85
2018-02-01T07:25:11.296Z,1.89
2018-02-01T07:26:11.288Z,1.90
2018-02-01T07:27:11.282Z,1.89
2018-02-01T07:28:11.282Z,1.89
2018-02-01T07:29:11.279Z,1.91
2018-02-01T07:30:11.299Z,1.97
2018-02-01T07:31:11.250Z,1.94
2018-02-01T07:32:11.264Z,1.97
2018-02-01T07:33:11.241Z,1.87
2018-02-01T07:34:11.231Z,1.89
2018-02-01T07:35:11.230Z,1.94
2018-02-01T07:36:11.244Z,1.90
2018-02-01T07:37:11.268Z,2.06
2018-02-01T07:38:11.200Z,1.90
2018-02-01T07:39:11.197Z,1.94
2018-02-01T07:40:11.222Z,1.89
2018-02-01T07:41:11.198Z,1.90
2018-02-01T07:42:11.172Z,1.94
2018-02-01T07:43:11.166Z,1.93
2018-02-01T07:44:11.162Z,1.91
2018-02-01T07:45:11.155Z,1.93
2018-02-01T07:46:11.166Z,1.90
2018-02-01T07:47:11.156Z,1.94
2018-02-01T07:48:11.136Z,1.90
2018-02-01T07:49:11.122Z,1.90
2018-02-01T07:50:11.115Z,1.85
2018-02-01T07:51:11.106Z,1.89
2018-02-01T07:52:11.098Z,1.91
2018-02-01T07:53:11.094Z,1.97
2018-02-01T07:54:11.083Z,1.98
2018-02-01T07:55:11.076Z,2.04
2018-02-01T07:56:11.078Z,1.97
2018-02-01T07:57:11.063Z,2.08
2018-02-01T07:58:11.057Z,2.01
2018-02-01T07:59:11.052Z,2.06
2018-02-01T08:00:11.041Z,2.06
2018-02-01T08:01:11.032Z,2.02
2018-02-01T08:02:11.026Z,2.02
2018-02-01T08:03:11.020Z,1.91
2018-02-01T08:04:11.015Z,2.06
2018-02-01T08:05:11.006Z,2.13
2018-02-01T08:06:11.009Z,2.09
2018-02-01T08:07:10.992Z,1.98
2018-02-01T08:08:10.985Z,2.02
2018-02-01T08:09:10.977Z,2.04
2018-02-01T08:10:10.970Z,2.19
2018-02-01T08:11:10.965Z,2.15
2018-02-01T08:12:10.956Z,2.12
2018-02-01T08:13:10.952Z,2.16
2018-02-01T08:14:11.626Z,2.13
2018-02-01T08:15:11.295Z,2.13
2018-02-01T08:16:10.941Z,2.19
2018-02-01T08:17:10.923Z,2.19
2018-02-01T08:18:10.915Z,2.16
2018-02-01T08:19:10.936Z,2.16
2018-02-01T08:20:11.352Z,2.23
2018-02-01T08:21:13.258Z,2.19
2018-02-01T08:22:11.981Z,2.23
2018-02-01T08:23:11.224Z,2.34
2018-02-01T08:24:11.248Z,2.35
2018-02-01T08:25:11.121Z,2.40
2018-02-01T08:26:10.989Z,2.44
2018-02-01T08:27:11.129Z,2.45
2018-02-01T08:28:11.001Z,2.56
2018-02-01T08:29:10.954Z,2.46
2018-02-01T08:30:10.908Z,2.48
2018-02-01T08:31:10.955Z,2.48
2018-02-01T08:32:10.853Z,2.52
2018-02-01T08:33:11.023Z,2.49
2018-02-01T08:34:10.912Z,2.59
2018-02-01T08:35:10.873Z,2.73
2018-02-01T08:36:10.912Z,2.73
2018-02-01T08:37:11.124Z,2.79
2018-02-01T08:38:10.892Z,2.85
2018-02-01T08:39:10.893Z,2.87
2018-02-01T08:40:10.851Z,2.97
2018-02-01T08:41:10.885Z,2.92
2018-02-01T08:42:11.817Z,3.06
2018-02-01T08:43:11.774Z,2.94
2018-02-01T08:44:10.953Z,3.05
2018-02-01T08:45:10.830Z,3.25
2018-02-01T08:46:12.625Z,3.33
2018-02-01T08:47:10.849Z,3.24
2018-02-01T08:48:10.907Z,3.46
2018-02-01T08:49:10.777Z,3.53
2018-02-01T08:50:10.924Z,3.60
2018-02-01T08:51:10.881Z,3.75
2018-02-01T08:52:10.976Z,3.85
2018-02-01T08:53:10.954Z,3.65
2018-02-01T08:54:11.064Z,3.43
2018-02-01T08:55:10.891Z,3.40
2018-02-01T08:56:10.897Z,3.46
2018-02-01T08:57:10.791Z,3.31
2018-02-01T08:58:10.969Z,3.24
2018-02-01T08:59:10.722Z,3.21
2018-02-01T09:00:10.735Z,3.36
2018-02-01T09:01:10.652Z,3.42
2018-02-01T09:02:10.681Z,3.44
2018-02-01T09:03:10.639Z,3.50
2018-02-01T09:04:11.840Z,3.46
2018-02-01T09:05:11.982Z,3.60
2018-02-01T09:06:10.772Z,3.61
2018-02-01T09:07:10.912Z,3.57
2018-02-01T09:08:10.623Z,3.52
2018-02-01T09:09:10.617Z,3.62
2018-02-01T09:10:11.120Z,3.54
2018-02-01T09:11:11.009Z,3.57
2018-02-01T09:12:12.796Z,3.62
2018-02-01T09:14:45.734Z,3.89
2018-02-01T09:15:55.203Z,3.88
2018-02-01T09:17:55.226Z,4.06
2018-02-01T09:18:33.691Z,4.01
2018-02-01T09:19:34.656Z,3.89
2018-02-01T09:20:33.631Z,3.75
2018-02-01T09:21:33.684Z,3.72
2018-02-01T09:22:34.260Z,3.65
2018-02-01T09:23:33.013Z,3.65
2018-02-01T09:24:33.555Z,3.57
2018-02-01T09:25:32.954Z,3.57
2018-02-01T09:26:35.733Z,3.61
2018-02-01T09:27:33.582Z,3.64
2018-02-01T09:28:32.803Z,3.68
2018-02-01T09:29:32.564Z,3.70
2018-02-01T09:30:32.560Z,3.80
2018-02-01T09:31:32.554Z,3.75
2018-02-01T09:32:32.549Z,3.79
2018-02-01T09:33:32.549Z,3.85
2018-02-01T09:34:32.538Z,3.90
2018-02-01T09:35:32.537Z,3.97
2018-02-01T09:36:32.527Z,4.01
2018-02-01T09:37:32.527Z,4.15
2018-02-01T09:38:32.575Z,4.21
2018-02-01T09:39:32.531Z,4.19
2018-02-01T09:40:32.576Z,4.29
2018-02-01T09:41:32.523Z,4.26
2018-02-01T09:42:32.553Z,4.39
2018-02-01T09:43:32.508Z,4.43
2018-02-01T09:44:32.560Z,4.51
2018-02-01T09:45:32.558Z,4.57
2018-02-01T09:46:32.485Z,4.37
2018-02-01T09:47:32.482Z,4.36
2018-02-01T09:48:32.473Z,4.39
2018-02-01T09:49:34.322Z,4.42
2018-02-01T09:50:32.570Z,4.46
2018-02-01T09:51:34.280Z,4.34
2018-02-01T09:52:32.805Z,4.29
2018-02-01T09:53:32.452Z,4.34
2018-02-01T09:54:32.479Z,4.08
2018-02-01T09:55:32.476Z,3.80
2018-02-01T09:56:32.501Z,3.72
2018-02-01T09:57:32.434Z,3.75
2018-02-01T09:58:32.432Z,3.92
2018-02-01T09:59:32.472Z,3.90
2018-02-01T10:00:32.431Z,3.85
2018-02-01T10:01:32.420Z,3.65
2018-02-01T10:02:32.473Z,3.82
2018-02-01T10:03:32.497Z,3.94
2018-02-01T10:04:32.523Z,4.16
2018-02-01T10:05:32.492Z,4.26
2018-02-01T10:06:32.412Z,4.83
2018-02-01T10:07:32.437Z,5.93
2018-02-01T10:08:32.393Z,7.15
2018-02-01T10:09:32.423Z,7.82
2018-02-01T10:10:32.387Z,8.04
2018-02-01T10:11:32.376Z,8.11
2018-02-01T10:12:32.373Z,7.60
2018-02-01T10:13:32.376Z,7.89
2018-02-01T10:14:32.371Z,7.55
2018-02-01T10:15:32.374Z,7.81
2018-02-01T10:16:33.447Z,8.03
2018-02-01T10:17:32.414Z,7.40
2018-02-01T10:18:32.400Z,7.16
2018-02-01T10:19:32.382Z,6.98
2018-02-01T10:20:32.387Z,6.65
2018-02-01T10:21:32.397Z,6.13
2018-02-01T10:22:32.423Z,6.19
2018-02-01T10:23:32.414Z,6.43
2018-02-01T10:24:32.472Z,6.38
2018-02-01T10:25:32.416Z,6.10
2018-02-01T10:26:32.395Z,5.71
2018-02-01T10:27:32.417Z,5.75
2018-02-01T10:28:32.420Z,5.77
2018-02-01T10:29:32.402Z,5.75
2018-02-01T10:30:32.411Z,5.74
2018-02-01T10:31:32.415Z,5.71
2018-02-01T10:32:32.412Z,5.71
2018-02-01T10:33:32.418Z,5.45
2018-02-01T10:34:32.423Z,5.30
2018-02-01T10:35:32.426Z,5.17
2018-02-01T10:36:32.452Z,4.94
2018-02-01T10:37:32.435Z,5.13
2018-02-01T10:38:32.443Z,5.32
2018-02-01T10:39:32.445Z,5.25
2018-02-01T10:40:32.451Z,5.14
2018-02-01T10:41:32.498Z,5.49
2018-02-01T10:42:32.461Z,5.60
2018-02-01T10:43:32.465Z,5.92
2018-02-01T10:44:32.475Z,6.25
2018-02-01T10:45:32.479Z,6.19
2018-02-01T10:46:32.488Z,6.43
2018-02-01T10:47:32.487Z,6.44
2018-02-01T10:48:32.497Z,6.21
2018-02-01T10:49:32.502Z,6.16
2018-02-01T10:50:32.510Z,6.25
2018-02-01T10:51:32.519Z,6.32
2018-02-01T10:52:32.524Z,6.41
2018-02-01T10:53:32.531Z,6.43
2018-02-01T10:54:32.538Z,6.29
2018-02-01T10:55:32.543Z,6.07
2018-02-01T10:56:32.553Z,5.82
2018-02-01T10:57:32.557Z,5.63
2018-02-01T10:58:32.566Z,5.59
2018-02-01T10:59:32.592Z,5.32
2018-02-01T11:00:32.578Z,5.41
2018-02-01T11:01:32.578Z,5.56
2018-02-01T11:02:32.583Z,5.71
2018-02-01T11:03:32.587Z,5.88
2018-02-01T11:04:32.594Z,6.21
2018-02-01T11:05:32.594Z,6.41
2018-02-01T11:06:32.604Z,6.62
2018-02-01T11:07:32.599Z,6.79
2018-02-01T11:08:32.602Z,6.94
2018-02-01T11:09:32.613Z,6.81
2018-02-01T11:10:32.608Z,7.04
2018-02-01T11:11:32.606Z,6.89
2018-02-01T11:12:32.606Z,6.40
2018-02-01T11:13:32.608Z,6.25
2018-02-01T11:14:32.613Z,5.98
2018-02-01T11:15:32.607Z,6.03
2018-02-01T11:16:32.610Z,6.11
2018-02-01T11:17:32.611Z,6.16
2018-02-01T11:18:32.613Z,6.40
2018-02-01T11:19:32.609Z,6.35
2018-02-01T11:20:32.611Z,6.48
2018-02-01T11:21:32.610Z,6.56
2018-02-01T11:22:32.618Z,6.77
2018-02-01T11:23:32.613Z,6.71
2018-02-01T11:24:32.610Z,6.01
2018-02-01T11:25:32.612Z,6.22
2018-02-01T11:26:32.611Z,6.44
2018-02-01T11:27:32.609Z,6.47
2018-02-01T11:28:32.608Z,6.53
2018-02-01T11:29:32.607Z,6.53
2018-02-01T11:30:32.606Z,6.30
2018-02-01T11:31:32.605Z,6.16
2018-02-01T11:32:32.603Z,6.16
2018-02-01T11:33:32.602Z,6.04
2018-02-01T11:34:32.600Z,6.13
2018-02-01T11:35:32.600Z,6.40
2018-02-01T11:36:32.600Z,6.62
2018-02-01T11:37:32.596Z,6.72
2018-02-01T11:38:32.597Z,6.71
2018-02-01T11:39:32.594Z,6.51
2018-02-01T11:40:32.595Z,6.33
2018-02-01T11:41:32.591Z,6.14
2018-02-01T11:42:32.590Z,6.11
2018-02-01T11:43:32.585Z,6.10
2018-02-01T11:44:32.584Z,6.38
2018-02-01T11:45:32.582Z,6.06
2018-02-01T11:46:32.582Z,6.07
2018-02-01T11:47:32.578Z,6.10
2018-02-01T11:48:32.581Z,5.92
2018-02-01T11:49:32.574Z,5.85
2018-02-01T11:50:32.573Z,5.83
2018-02-01T11:51:32.572Z,5.82
2018-02-01T11:52:32.565Z,5.77
2018-02-01T11:53:32.563Z,5.60
2018-02-01T11:54:32.567Z,5.68
2018-02-01T11:55:32.558Z,5.57
2018-02-01T11:56:32.557Z,5.45
2018-02-01T11:57:32.557Z,5.23
2018-02-01T11:58:32.552Z,5.35
2018-02-01T11:59:32.549Z,5.56
2018-02-01T12:00:32.548Z,5.71
2018-02-01T12:01:32.546Z,5.78
2018-02-01T12:02:32.538Z,5.83
2018-02-01T12:03:32.535Z,5.78
2018-02-01T12:04:32.534Z,5.74
2018-02-01T12:05:32.529Z,5.68
2018-02-01T12:06:32.532Z,5.60
2018-02-01T12:07:32.525Z,5.63
2018-02-01T12:08:32.522Z,5.57
2018-02-01T12:09:32.522Z,5.49
2018-02-01T12:10:32.515Z,5.12
2018-02-01T12:11:32.511Z,5.13
2018-02-01T12:12:32.512Z,5.04
2018-02-01T12:13:32.504Z,4.96
2018-02-01T12:14:32.502Z,4.96
2018-02-01T12:15:32.499Z,5.01
2018-02-01T12:16:32.493Z,4.88
2018-02-01T12:17:32.493Z,4.84
2018-02-01T12:18:32.492Z,4.89
2018-02-01T12:19:32.481Z,4.79
2018-02-01T12:20:32.479Z,4.88
2018-02-01T12:21:32.474Z,4.84
2018-02-01T12:22:32.508Z,4.84
2018-02-01T12:23:32.466Z,4.79
2018-02-01T12:24:32.466Z,4.80
2018-02-01T12:25:32.461Z,4.73
2018-02-01T12:26:32.492Z,4.73
2018-02-01T12:27:32.454Z,4.86
2018-02-01T12:28:32.450Z,4.70
2018-02-01T12:29:32.444Z,4.76
2018-02-01T12:30:32.459Z,4.69
2018-02-01T12:31:32.436Z,4.65
2018-02-01T12:32:32.432Z,4.64
2018-02-01T12:33:32.433Z,4.52
2018-02-01T12:34:32.426Z,4.46
2018-02-01T12:35:32.422Z,4.51
2018-02-01T12:36:32.419Z,4.47
2018-02-01T12:37:32.414Z,4.44
2018-02-01T12:38:32.450Z,4.34
2018-02-01T12:39:32.408Z,4.33
2018-02-01T12:40:32.401Z,4.47
2018-02-01T12:41:32.401Z,4.64
2018-02-01T12:42:32.391Z,4.67
2018-02-01T12:43:32.386Z,4.47
2018-02-01T12:44:32.387Z,4.57
2018-02-01T12:45:32.381Z,4.69
2018-02-01T12:46:32.406Z,4.73
2018-02-01T12:47:32.370Z,4.65
2018-02-01T12:48:39.291Z,4.70
2018-02-01T12:49:32.359Z,4.77
2018-02-01T12:50:32.369Z,4.84
2018-02-01T12:51:32.354Z,4.80
2018-02-01T12:52:32.350Z,4.75
2018-02-01T12:53:32.353Z,4.65
2018-02-01T12:54:32.341Z,4.79
2018-02-01T12:55:32.335Z,4.80
2018-02-01T12:56:32.348Z,4.77
2018-02-01T12:57:32.338Z,4.84
2018-02-01T12:58:32.340Z,4.84
2018-02-01T12:59:32.319Z,4.92
2018-02-01T13:00:32.313Z,4.96
2018-02-01T13:01:32.317Z,4.99
2018-02-01T13:02:32.304Z,4.99
2018-02-01T13:03:32.298Z,5.04
2018-02-01T13:04:32.297Z,5.14
2018-02-01T13:05:32.290Z,5.14
2018-02-01T13:06:32.286Z,4.92
2018-02-01T13:07:32.282Z,4.99
2018-02-01T13:08:32.276Z,5.04
2018-02-01T13:09:32.427Z,5.12
2018-02-01T13:10:32.267Z,5.04
2018-02-01T13:11:32.267Z,4.94
2018-02-01T13:12:32.275Z,5.01
2018-02-01T13:13:32.254Z,4.99
2018-02-01T13:14:32.249Z,4.96
2018-02-01T13:15:32.242Z,4.70
2018-02-01T13:16:32.238Z,4.62
2018-02-01T13:17:32.236Z,4.59
2018-02-01T13:18:32.236Z,4.67
2018-02-01T13:19:32.230Z,4.52
2018-02-01T13:20:32.277Z,4.47